Time;durP1;ratioP1;P1;durP2;ratioP2;P2;SDS_P1;SDS_P2;PMS_P1;PMS_P2;Temp;Humidity;BMP_temperature;BMP_pressure;BME280_temperature;BME280_humidity;BME280_pressure;Samples;Min_cycle;Max_cycle;Signal;HPM_P1;HPM_P2
2021/08/18 00:00:36;;;;;;;25.75;12.10;;;12.20;98.00;;;;;;5031914;28;20026;-74
2021/08/18 00:03:03;;;;;;;32.50;14.85;;;12.20;98.00;;;;;;5022604;28;20040;-74
2021/08/18 00:05:29;;;;;;;31.85;14.35;;;12.30;98.00;;;;;;5022231;28;20025;-73
2021/08/18 00:07:55;;;;;;;29.08;13.48;;;12.20;98.00;;;;;;5038106;28;20021;-74
2021/08/18 00:10:22;;;;;;;38.65;14.02;;;12.20;98.00;;;;;;5035993;28;20378;-74
2021/08/18 00:12:47;;;;;;;29.52;13.82;;;12.20;98.00;;;;;;5025226;28;20030;-73
2021/08/18 00:15:15;;;;;;;31.75;15.23;;;12.20;98.00;;;;;;5020812;28;20028;-74
2021/08/18 00:17:41;;;;;;;28.27;13.60;;;12.20;98.00;;;;;;5037010;28;20045;-74
2021/08/18 00:20:07;;;;;;;32.15;15.27;;;12.20;98.00;;;;;;5031469;28;20032;-73
2021/08/18 00:22:33;;;;;;;36.20;13.98;;;12.30;98.00;;;;;;5031729;28;20056;-74
2021/08/18 00:24:59;;;;;;;29.42;13.95;;;12.30;98.00;;;;;;5017973;28;20063;-73
2021/08/18 00:27:24;;;;;;;28.83;13.77;;;12.30;98.00;;;;;;5030204;28;20432;-72
2021/08/18 00:29:50;;;;;;;29.73;13.52;;;12.30;98.00;;;;;;5037324;28;20060;-73
2021/08/18 00:32:15;;;;;;;31.17;13.43;;;12.30;98.00;;;;;;5032344;28;20111;-74
2021/08/18 00:34:41;;;;;;;32.67;14.57;;;12.30;98.00;;;;;;5037674;28;20358;-73
2021/08/18 00:37:07;;;;;;;28.63;14.43;;;12.30;98.00;;;;;;5019572;28;20084;-74
2021/08/18 00:39:32;;;;;;;27.05;13.57;;;12.30;98.00;;;;;;5017639;28;20037;-74
2021/08/18 00:41:59;;;;;;;29.50;13.93;;;12.30;98.00;;;;;;5033513;28;20032;-73
2021/08/18 00:44:25;;;;;;;27.48;13.73;;;12.30;98.00;;;;;;5025549;28;20192;-73
2021/08/18 00:46:57;;;;;;;28.10;13.23;;;12.30;98.00;;;;;;5018783;28;20423;-73
2021/08/18 00:49:23;;;;;;;26.73;14.70;;;12.30;98.00;;;;;;5019717;28;20040;-73
2021/08/18 00:51:50;;;;;;;33.75;14.85;;;12.30;98.00;;;;;;5017494;28;20026;-72
2021/08/18 00:54:17;;;;;;;34.00;14.65;;;12.30;98.00;;;;;;5025078;28;20028;-72
2021/08/18 00:56:44;;;;;;;32.38;15.20;;;12.30;98.00;;;;;;5029185;28;20044;-73
2021/08/18 00:59:10;;;;;;;34.63;15.65;;;12.40;98.00;;;;;;5028692;28;20025;-72
2021/08/18 01:01:38;;;;;;;32.38;15.40;;;12.40;98.00;;;;;;5032784;28;20109;-73
2021/08/18 01:04:04;;;;;;;29.77;14.20;;;12.40;98.00;;;;;;5018204;28;20041;-73
2021/08/18 01:06:31;;;;;;;35.22;15.15;;;12.40;98.00;;;;;;5026460;28;20029;-73
2021/08/18 01:08:57;;;;;;;35.40;13.82;;;12.40;98.00;;;;;;5035583;28;20033;-73
2021/08/18 01:11:23;;;;;;;28.55;14.27;;;12.50;98.00;;;;;;5015981;28;20028;-72
2021/08/18 01:13:49;;;;;;;30.80;14.30;;;12.60;98.00;;;;;;5017099;28;20025;-72
2021/08/18 01:16:18;;;;;;;30.33;13.85;;;12.60;98.00;;;;;;5036107;28;20030;-72
2021/08/18 01:18:44;;;;;;;31.33;14.23;;;12.60;98.00;;;;;;5035070;28;20022;-72
2021/08/18 01:21:10;;;;;;;27.80;14.05;;;12.60;98.00;;;;;;5021469;28;20076;-72
2021/08/18 01:23:36;;;;;;;28.42;13.88;;;12.60;98.00;;;;;;5016746;28;20057;-73
2021/08/18 01:26:04;;;;;;;29.92;14.88;;;12.60;98.00;;;;;;5016769;28;20105;-73
2021/08/18 01:28:30;;;;;;;28.70;14.63;;;12.60;98.00;;;;;;5028017;28;20034;-73
2021/08/18 01:30:58;;;;;;;28.88;14.30;;;12.60;98.00;;;;;;5026767;28;20466;-73
2021/08/18 01:33:24;;;;;;;30.67;13.45;;;12.60;98.00;;;;;;5016661;28;20037;-73
2021/08/18 01:35:51;;;;;;;28.20;13.85;;;12.60;98.00;;;;;;5017710;28;20030;-73
2021/08/18 01:38:19;;;;;;;34.05;14.32;;;12.60;98.00;;;;;;5029833;28;20025;-72
2021/08/18 01:40:47;;;;;;;29.42;14.02;;;12.60;98.00;;;;;;5025436;28;20315;-72
2021/08/18 01:43:13;;;;;;;28.10;13.55;;;12.60;98.00;;;;;;5024047;28;20048;-72
2021/08/18 01:45:46;;;;;;;31.15;14.15;;;12.60;98.00;;;;;;5017713;28;20037;-72
2021/08/18 01:48:15;;;;;;;30.85;14.30;;;12.60;98.00;;;;;;5016511;28;20034;-72
2021/08/18 01:50:53;;;;;;;31.80;14.20;;;12.60;98.00;;;;;;5022970;28;20308;-73
2021/08/18 01:53:46;;;;;;;28.15;13.98;;;12.60;98.00;;;;;;5024833;28;20033;-73
2021/08/18 01:56:12;;;;;;;30.58;14.10;;;12.60;98.00;;;;;;5016107;28;20037;-73
2021/08/18 01:58:39;;;;;;;31.77;14.10;;;12.70;98.00;;;;;;5018930;28;20776;-73
2021/08/18 02:01:08;;;;;;;32.03;14.55;;;12.70;98.00;;;;;;5031851;28;20033;-72
2021/08/18 02:03:34;;;;;;;31.92;15.20;;;12.70;98.00;;;;;;5017535;28;20030;-72
2021/08/18 02:06:00;;;;;;;28.58;13.63;;;12.70;98.00;;;;;;5023238;28;20378;-73
2021/08/18 02:08:26;;;;;;;32.55;15.50;;;12.70;98.00;;;;;;5020022;28;20030;-73
2021/08/18 02:10:52;;;;;;;27.75;14.63;;;12.60;98.00;;;;;;5025227;28;20026;-72
2021/08/18 02:13:18;;;;;;;30.73;13.80;;;12.60;98.00;;;;;;5022093;28;20033;-73
2021/08/18 02:15:44;;;;;;;30.10;14.50;;;12.60;98.00;;;;;;5018552;28;20053;-72
2021/08/18 02:18:14;;;;;;;24.30;13.75;;;12.60;98.00;;;;;;5023782;28;20030;-73
2021/08/18 02:20:41;;;;;;;29.50;14.13;;;12.50;98.00;;;;;;5017785;28;20022;-73
2021/08/18 02:23:10;;;;;;;30.67;14.50;;;12.60;98.00;;;;;;5019001;28;20060;-72
2021/08/18 02:25:36;;;;;;;27.05;12.95;;;12.60;98.00;;;;;;5024917;28;20029;-72
2021/08/18 02:28:04;;;;;;;29.40;14.43;;;12.60;98.00;;;;;;5017391;28;20033;-72
2021/08/18 02:30:30;;;;;;;31.02;14.30;;;12.60;98.00;;;;;;5017489;28;20029;-73
2021/08/18 02:32:56;;;;;;;29.27;14.25;;;12.60;98.00;;;;;;5025047;28;20109;-72
2021/08/18 02:35:25;;;;;;;30.17;14.55;;;12.60;98.00;;;;;;5016733;28;20022;-72
2021/08/18 02:37:53;;;;;;;29.80;14.60;;;12.60;98.00;;;;;;5022211;28;20025;-73
2021/08/18 02:40:20;;;;;;;32.88;15.43;;;12.60;98.00;;;;;;5035711;28;20021;-72
2021/08/18 02:42:53;;;;;;;32.08;16.77;;;12.50;98.00;;;;;;5025908;28;20100;-71
2021/08/18 02:45:21;;;;;;;31.77;15.07;;;12.50;98.00;;;;;;5020123;28;20120;-71
2021/08/18 02:47:48;;;;;;;29.83;14.82;;;12.50;98.00;;;;;;5030285;28;20280;-72
2021/08/18 02:50:17;;;;;;;27.17;14.27;;;12.40;98.00;;;;;;5017627;28;20034;-73
2021/08/18 02:52:43;;;;;;;29.85;14.70;;;12.40;98.00;;;;;;5023297;28;20025;-71
2021/08/18 02:55:12;;;;;;;32.58;14.88;;;12.40;98.00;;;;;;5039283;28;20025;-72
2021/08/18 02:57:38;;;;;;;27.67;13.82;;;12.40;98.00;;;;;;5035644;28;20036;-72
2021/08/18 03:00:05;;;;;;;35.08;14.95;;;12.50;98.00;;;;;;5038533;28;20021;-71
2021/08/18 03:02:31;;;;;;;34.70;16.55;;;12.40;98.00;;;;;;5022593;28;20465;-72
2021/08/18 03:04:56;;;;;;;29.35;14.85;;;12.40;98.00;;;;;;5019613;28;20103;-71
2021/08/18 03:07:22;;;;;;;29.98;14.77;;;12.30;98.00;;;;;;5034953;28;20406;-71
2021/08/18 03:09:48;;;;;;;31.45;14.63;;;12.30;98.00;;;;;;5026501;28;20033;-71
2021/08/18 03:12:17;;;;;;;34.08;14.70;;;12.30;98.00;;;;;;5030056;28;20378;-72
2021/08/18 03:14:42;;;;;;;29.42;15.10;;;12.30;98.00;;;;;;5019224;28;20026;-72
2021/08/18 03:17:08;;;;;;;34.25;15.18;;;12.30;98.00;;;;;;5039124;28;20029;-72
2021/08/18 03:19:34;;;;;;;33.13;14.80;;;12.30;98.00;;;;;;5038967;28;20030;-71
2021/08/18 03:22:00;;;;;;;27.65;14.73;;;12.20;98.00;;;;;;5020210;28;20022;-72
2021/08/18 03:24:25;;;;;;;31.05;14.90;;;12.20;98.00;;;;;;5020128;28;20041;-72
2021/08/18 03:26:51;;;;;;;32.08;14.88;;;12.30;98.00;;;;;;5028218;28;20033;-71
2021/08/18 03:29:17;;;;;;;28.92;13.73;;;12.30;98.00;;;;;;5038411;28;20021;-72
2021/08/18 03:31:42;;;;;;;29.92;14.60;;;12.30;98.00;;;;;;5034905;28;20096;-72
2021/08/18 03:34:08;;;;;;;30.80;15.68;;;12.30;98.00;;;;;;5037022;28;20025;-72
2021/08/18 03:36:33;;;;;;;37.60;14.98;;;12.30;98.00;;;;;;5030163;28;20029;-72
2021/08/18 03:38:59;;;;;;;30.63;14.25;;;12.30;98.00;;;;;;5018780;28;20430;-71
2021/08/18 03:41:25;;;;;;;29.05;13.63;;;12.40;98.00;;;;;;5031052;28;20314;-71
2021/08/18 03:43:50;;;;;;;27.08;14.45;;;12.50;98.00;;;;;;5038528;28;20087;-71
2021/08/18 03:46:16;;;;;;;34.13;16.05;;;12.40;98.00;;;;;;5030406;28;20084;-71
2021/08/18 03:48:42;;;;;;;29.45;13.80;;;12.40;98.00;;;;;;5033245;28;20026;-72
2021/08/18 03:51:08;;;;;;;28.38;14.65;;;12.40;98.00;;;;;;5021918;28;20104;-72
2021/08/18 03:53:33;;;;;;;35.40;14.30;;;12.40;98.00;;;;;;5035009;28;20029;-72
2021/08/18 03:55:59;;;;;;;26.92;15.02;;;12.40;98.00;;;;;;5018457;28;20033;-71
2021/08/18 03:58:26;;;;;;;33.30;15.13;;;12.40;98.00;;;;;;5032433;28;20055;-71
2021/08/18 04:00:51;;;;;;;32.00;15.00;;;12.40;98.00;;;;;;5026888;28;20075;-71
2021/08/18 04:03:17;;;;;;;28.80;14.02;;;12.40;98.00;;;;;;5018856;28;20500;-73
2021/08/18 04:05:43;;;;;;;30.55;14.90;;;12.30;98.00;;;;;;5023927;28;20033;-72
2021/08/18 04:08:08;;;;;;;30.10;15.68;;;12.30;98.00;;;;;;5023855;28;20052;-72
2021/08/18 04:10:35;;;;;;;31.20;14.75;;;12.20;98.00;;;;;;5037555;28;20030;-71
2021/08/18 04:13:00;;;;;;;29.67;15.23;;;12.20;98.00;;;;;;5029957;28;20025;-71
2021/08/18 04:15:36;;;;;;;35.35;15.38;;;12.20;98.00;;;;;;5019301;28;20396;-71
2021/08/18 04:18:01;;;;;;;27.80;13.82;;;12.20;98.00;;;;;;5022837;28;20356;-71
2021/08/18 04:20:27;;;;;;;27.05;13.98;;;12.20;98.00;;;;;;5018014;28;20075;-72
2021/08/18 04:22:53;;;;;;;33.90;14.70;;;12.30;98.00;;;;;;5035972;28;20049;-71
2021/08/18 04:25:19;;;;;;;35.15;14.60;;;12.30;98.00;;;;;;5035198;28;20029;-71
2021/08/18 04:27:46;;;;;;;31.38;13.88;;;12.30;98.00;;;;;;5029126;28;20026;-71
2021/08/18 04:30:13;;;;;;;31.17;15.25;;;12.30;98.00;;;;;;5035994;28;20480;-73
2021/08/18 04:32:39;;;;;;;34.42;14.25;;;12.30;98.00;;;;;;5021320;28;20033;-71
2021/08/18 04:35:07;;;;;;;32.78;15.05;;;12.30;98.00;;;;;;5033152;28;20078;-71
2021/08/18 04:37:36;;;;;;;33.97;15.07;;;12.30;98.00;;;;;;5026204;28;20036;-71
2021/08/18 04:40:10;;;;;;;28.98;14.45;;;12.40;98.00;;;;;;5017722;28;20084;-71
2021/08/18 04:42:37;;;;;;;30.30;15.23;;;12.40;98.00;;;;;;5022566;28;20105;-71
2021/08/18 04:45:04;;;;;;;28.80;14.20;;;12.40;98.00;;;;;;5024307;28;20026;-72
2021/08/18 04:47:30;;;;;;;37.38;15.43;;;12.40;98.00;;;;;;5017638;28;20030;-73
2021/08/18 04:49:56;;;;;;;24.95;13.55;;;12.40;98.00;;;;;;5018234;28;20476;-73
2021/08/18 04:52:21;;;;;;;27.42;13.77;;;12.50;98.00;;;;;;5016347;28;20319;-73
2021/08/18 04:54:47;;;;;;;26.98;14.38;;;12.40;98.00;;;;;;5018659;28;20343;-73
2021/08/18 04:57:13;;;;;;;27.88;13.35;;;12.60;98.00;;;;;;5018429;28;20041;-72
2021/08/18 04:59:38;;;;;;;29.38;14.48;;;12.60;98.00;;;;;;5036527;28;20025;-72
2021/08/18 05:02:07;;;;;;;34.05;13.90;;;12.60;98.00;;;;;;5034076;28;20022;-72
2021/08/18 05:04:35;;;;;;;26.23;14.07;;;12.60;98.00;;;;;;5017096;28;20036;-72
2021/08/18 05:07:01;;;;;;;26.45;13.40;;;12.60;98.00;;;;;;5031243;28;20040;-72
2021/08/18 05:09:26;;;;;;;30.30;14.98;;;12.60;98.00;;;;;;5036813;28;20030;-73
2021/08/18 05:11:54;;;;;;;32.65;14.57;;;12.70;98.00;;;;;;5022434;28;20101;-71
2021/08/18 05:14:19;;;;;;;28.73;15.00;;;12.70;98.00;;;;;;5016854;28;20034;-72
2021/08/18 05:16:45;;;;;;;26.95;13.65;;;12.70;98.00;;;;;;5030363;28;20043;-73
2021/08/18 05:19:10;;;;;;;26.67;14.50;;;12.70;98.00;;;;;;5024327;28;20066;-72
2021/08/18 05:21:39;;;;;;;32.22;15.55;;;12.80;98.00;;;;;;5031650;28;20314;-72
2021/08/18 05:24:05;;;;;;;27.85;14.00;;;12.80;98.00;;;;;;5018384;28;20050;-72
2021/08/18 05:26:30;;;;;;;24.63;12.82;;;12.80;98.00;;;;;;5033052;28;20485;-72
2021/08/18 05:28:56;;;;;;;29.17;13.15;;;12.90;98.00;;;;;;5035088;28;20061;-73
2021/08/18 05:31:22;;;;;;;26.52;13.90;;;13.00;98.00;;;;;;5021871;28;20033;-72
2021/08/18 05:33:47;;;;;;;29.42;14.10;;;13.10;98.00;;;;;;5030853;28;20029;-72
2021/08/18 05:36:16;;;;;;;29.80;14.90;;;13.10;98.00;;;;;;5031540;28;20034;-72
2021/08/18 05:38:42;;;;;;;25.10;13.43;;;13.20;98.00;;;;;;5021124;28;20640;-73
2021/08/18 05:41:11;;;;;;;29.45;13.48;;;13.20;98.00;;;;;;5020082;28;20455;-72
2021/08/18 05:43:37;;;;;;;25.88;13.30;;;13.30;98.00;;;;;;5018329;28;20379;-72
2021/08/18 05:46:04;;;;;;;27.65;13.27;;;13.30;98.00;;;;;;5020843;28;20030;-70
2021/08/18 05:48:29;;;;;;;23.67;13.55;;;13.40;98.00;;;;;;5036217;28;20026;-72
2021/08/18 05:50:56;;;;;;;29.98;14.40;;;13.50;98.00;;;;;;5029964;28;20033;-72
2021/08/18 05:53:21;;;;;;;24.23;12.88;;;13.50;98.00;;;;;;5016338;28;20061;-72
2021/08/18 05:55:48;;;;;;;29.73;13.40;;;13.60;98.00;;;;;;5016711;28;20119;-73
2021/08/18 05:58:14;;;;;;;28.95;13.77;;;13.70;98.00;;;;;;5015747;28;20148;-72
2021/08/18 06:00:40;;;;;;;28.33;14.50;;;13.70;98.00;;;;;;5022245;28;20088;-72
2021/08/18 06:03:06;;;;;;;29.33;13.10;;;13.80;98.00;;;;;;5017418;28;20034;-71
2021/08/18 06:05:31;;;;;;;26.95;14.40;;;13.90;98.00;;;;;;5024916;28;20112;-71
2021/08/18 06:07:57;;;;;;;29.65;13.68;;;14.00;98.00;;;;;;5027723;28;20026;-72
2021/08/18 06:10:23;;;;;;;22.70;13.25;;;13.90;98.00;;;;;;5035630;28;20029;-72
2021/08/18 06:12:50;;;;;;;29.60;14.15;;;13.90;98.00;;;;;;5034585;28;20025;-72
2021/08/18 06:15:15;;;;;;;29.77;14.57;;;13.80;98.00;;;;;;5035990;28;20025;-72
2021/08/18 06:17:41;;;;;;;31.58;14.40;;;13.90;98.00;;;;;;5035831;28;20029;-72
2021/08/18 06:20:08;;;;;;;29.02;14.88;;;13.90;98.00;;;;;;5036088;28;20338;-72
2021/08/18 06:22:33;;;;;;;25.27;13.90;;;13.90;98.00;;;;;;5035730;28;20046;-72
2021/08/18 06:25:02;;;;;;;26.70;14.32;;;13.90;98.00;;;;;;5036275;28;20406;-73
2021/08/18 06:27:30;;;;;;;30.45;14.82;;;14.00;98.00;;;;;;5038159;28;20037;-71
2021/08/18 06:29:56;;;;;;;25.33;13.27;;;13.90;98.00;;;;;;5030798;28;20079;-71
2021/08/18 06:32:22;;;;;;;32.60;14.35;;;14.00;98.00;;;;;;5019126;28;20109;-73
2021/08/18 06:34:48;;;;;;;25.10;12.77;;;13.90;98.00;;;;;;5030328;28;20111;-72
2021/08/18 06:37:14;;;;;;;23.10;12.80;;;14.00;98.00;;;;;;5039834;28;20025;-72
2021/08/18 06:39:40;;;;;;;21.52;12.68;;;14.10;97.90;;;;;;5039211;28;20322;-72
2021/08/18 06:42:06;;;;;;;48.78;13.73;;;14.00;98.00;;;;;;5037394;28;20026;-72
2021/08/18 06:44:32;;;;;;;25.95;12.38;;;14.00;98.00;;;;;;5020714;28;20084;-72
2021/08/18 06:46:58;;;;;;;31.05;14.05;;;14.10;98.00;;;;;;5019808;28;20030;-71
2021/08/18 06:49:23;;;;;;;26.33;12.57;;;14.20;98.00;;;;;;5036695;28;20037;-73
2021/08/18 06:51:49;;;;;;;25.23;12.82;;;14.20;98.00;;;;;;5039683;28;20482;-71
2021/08/18 06:54:15;;;;;;;25.02;11.85;;;14.20;97.80;;;;;;5023850;28;20318;-71
2021/08/18 06:56:40;;;;;;;23.33;12.35;;;14.30;97.90;;;;;;5018569;28;20026;-71
2021/08/18 06:59:06;;;;;;;22.58;11.50;;;14.40;97.50;;;;;;5021835;28;20022;-71
2021/08/18 07:01:32;;;;;;;26.25;12.13;;;14.50;96.90;;;;;;5035879;28;20037;-72
2021/08/18 07:03:57;;;;;;;27.17;12.25;;;14.60;97.20;;;;;;5039391;28;20103;-71
2021/08/18 07:06:23;;;;;;;23.63;11.00;;;14.70;95.90;;;;;;5025397;28;20087;-71
2021/08/18 07:08:48;;;;;;;22.98;11.48;;;14.80;96.80;;;;;;5032196;28;20032;-71
2021/08/18 07:11:14;;;;;;;25.67;11.70;;;14.70;96.30;;;;;;5026719;28;20033;-70
2021/08/18 07:13:40;;;;;;;23.52;11.05;;;14.80;96.10;;;;;;5019353;28;20034;-72
2021/08/18 07:16:08;;;;;;;20.98;11.27;;;14.90;96.10;;;;;;5028097;28;20029;-72
2021/08/18 07:18:33;;;;;;;23.73;12.18;;;15.10;96.10;;;;;;5039025;28;20035;-70
2021/08/18 07:20:59;;;;;;;25.33;11.77;;;15.20;95.30;;;;;;5037445;28;20108;-71
2021/08/18 07:23:25;;;;;;;21.98;11.27;;;15.20;95.40;;;;;;5032556;28;20045;-71
2021/08/18 07:25:50;;;;;;;18.65;10.45;;;15.30;94.50;;;;;;5034699;28;20033;-71
2021/08/18 07:28:16;;;;;;;25.15;10.57;;;15.30;94.70;;;;;;5025441;28;20037;-71
2021/08/18 07:30:45;;;;;;;19.58;8.80;;;15.70;95.10;;;;;;5032807;28;20056;-71
2021/08/18 07:33:10;;;;;;;20.95;10.38;;;15.90;93.90;;;;;;5037000;28;20303;-70
2021/08/18 07:35:36;;;;;;;25.23;11.30;;;16.10;93.40;;;;;;5029563;28;20037;-71
2021/08/18 07:38:02;;;;;;;18.83;10.00;;;15.90;92.90;;;;;;5019050;28;20453;-70
2021/08/18 07:40:30;;;;;;;17.92;9.18;;;15.90;93.40;;;;;;5025753;28;20021;-73
2021/08/18 07:42:56;;;;;;;21.98;10.20;;;15.90;93.30;;;;;;5037236;28;20083;-73
2021/08/18 07:45:22;;;;;;;20.58;9.77;;;15.90;93.20;;;;;;5037017;28;20374;-72
2021/08/18 07:47:48;;;;;;;18.20;9.30;;;15.90;93.80;;;;;;5023369;28;20036;-71
2021/08/18 07:50:14;;;;;;;18.52;9.35;;;16.10;93.50;;;;;;5022098;28;20466;-73
2021/08/18 07:52:40;;;;;;;22.58;9.15;;;16.40;92.80;;;;;;5018631;28;20304;-73
2021/08/18 07:55:09;;;;;;;18.23;9.15;;;16.40;92.80;;;;;;5019569;28;20030;-72
2021/08/18 07:57:37;;;;;;;19.50;9.07;;;16.20;92.90;;;;;;5017363;28;20033;-72
2021/08/18 08:00:05;;;;;;;19.48;9.80;;;16.40;93.00;;;;;;5031624;28;20017;-72
2021/08/18 08:02:31;;;;;;;14.15;8.38;;;16.40;92.30;;;;;;5036177;28;20100;-72
2021/08/18 08:04:57;;;;;;;23.98;9.65;;;16.70;92.00;;;;;;5036571;28;20403;-72
2021/08/18 08:07:23;;;;;;;16.77;8.50;;;17.00;91.40;;;;;;5038086;28;20088;-72
2021/08/18 08:09:49;;;;;;;15.02;7.75;;;17.50;90.20;;;;;;5032486;28;20097;-72
2021/08/18 08:12:14;;;;;;;17.65;7.80;;;18.50;86.80;;;;;;5036695;28;20021;-72
2021/08/18 08:14:40;;;;;;;12.98;7.68;;;18.40;85.40;;;;;;5036237;28;20026;-71
2021/08/18 08:17:06;;;;;;;12.55;6.60;;;17.80;87.20;;;;;;5038119;28;20060;-72
2021/08/18 08:19:34;;;;;;;14.63;7.72;;;17.70;87.70;;;;;;5029433;28;20360;-72
2021/08/18 08:22:03;;;;;;;17.52;7.80;;;17.30;88.40;;;;;;5020174;28;20479;-72
2021/08/18 08:24:29;;;;;;;15.70;7.35;;;17.20;89.50;;;;;;5018185;28;20038;-73
2021/08/18 08:26:54;;;;;;;13.98;7.53;;;17.00;90.20;;;;;;5020826;28;20021;-72
2021/08/18 08:29:23;;;;;;;11.48;6.55;;;16.70;90.70;;;;;;5037954;28;20025;-72
2021/08/18 08:31:48;;;;;;;15.52;7.22;;;16.40;91.60;;;;;;5032524;28;20322;-72
2021/08/18 08:34:16;;;;;;;16.45;7.38;;;16.30;91.80;;;;;;5017823;28;20026;-72
2021/08/18 08:36:42;;;;;;;12.88;6.15;;;16.10;92.40;;;;;;5018941;28;20037;-72
2021/08/18 08:39:09;;;;;;;12.38;6.20;;;15.90;93.70;;;;;;5017779;28;20026;-72
2021/08/18 08:41:35;;;;;;;11.27;6.47;;;15.80;94.30;;;;;;5017158;28;20022;-72
2021/08/18 08:44:02;;;;;;;13.38;6.22;;;16.10;94.30;;;;;;5037411;28;20395;-72
2021/08/18 08:46:28;;;;;;;12.95;6.10;;;16.20;92.70;;;;;;5034359;28;20050;-72
2021/08/18 08:48:54;;;;;;;10.85;5.70;;;16.10;93.00;;;;;;5021451;28;20033;-73
2021/08/18 08:51:20;;;;;;;13.27;6.40;;;16.20;93.40;;;;;;5043070;28;20097;-71
2021/08/18 08:53:46;;;;;;;12.90;6.18;;;16.30;93.30;;;;;;5037308;28;20390;-72
2021/08/18 08:56:11;;;;;;;12.70;5.90;;;16.60;92.60;;;;;;5036014;28;20030;-72
2021/08/18 08:58:37;;;;;;;10.27;5.65;;;16.80;92.00;;;;;;5037280;28;20028;-71
2021/08/18 09:01:03;;;;;;;10.07;5.70;;;17.00;91.50;;;;;;5036464;28;20361;-72
2021/08/18 09:03:28;;;;;;;10.18;5.80;;;17.10;91.50;;;;;;5037120;28;20029;-71
2021/08/18 09:06:04;;;;;;;10.45;5.57;;;17.40;90.10;;;;;;5037172;28;20295;-72
2021/08/18 09:08:30;;;;;;;10.68;5.13;;;17.90;90.30;;;;;;5035974;28;20033;-72
2021/08/18 09:11:14;;;;;;;8.27;4.15;;;17.90;88.90;;;;;;5035707;28;20028;-72
2021/08/18 09:13:51;;;;;;;8.93;4.10;;;17.80;88.10;;;;;;5036957;28;20025;-72
2021/08/18 09:16:38;;;;;;;10.13;4.57;;;17.60;89.20;;;;;;5052230;28;20414;-72
2021/08/18 09:19:04;;;;;;;11.77;4.85;;;17.50;89.70;;;;;;5036557;28;20029;-71
2021/08/18 09:21:40;;;;;;;9.38;4.50;;;17.30;90.00;;;;;;5036791;28;20484;-72
2021/08/18 09:24:11;;;;;;;8.13;4.28;;;17.00;91.00;;;;;;5036718;28;20076;-72
2021/08/18 09:27:08;;;;;;;9.18;4.80;;;16.80;91.70;;;;;;5035469;28;20022;-72
2021/08/18 09:29:35;;;;;;;10.25;5.10;;;16.70;92.10;;;;;;5035778;28;20346;-73
2021/08/18 09:32:23;;;;;;;9.48;4.85;;;17.00;92.20;;;;;;5036681;28;20084;-72
2021/08/18 09:34:58;;;;;;;9.38;4.43;;;17.40;91.20;;;;;;5036633;28;20030;-72
2021/08/18 09:37:24;;;;;;;11.00;5.03;;;17.60;89.50;;;;;;5035375;28;20030;-71
2021/08/18 09:39:51;;;;;;;7.20;3.72;;;18.10;88.80;;;;;;5036324;28;20448;-73
2021/08/18 09:42:32;;;;;;;8.23;3.78;;;18.30;88.00;;;;;;5035332;28;20079;-72
2021/08/18 09:45:20;;;;;;;7.63;3.63;;;18.40;87.10;;;;;;5035720;28;20422;-71
2021/08/18 09:47:59;;;;;;;9.55;3.22;;;18.90;86.80;;;;;;5036333;28;20064;-70
2021/08/18 09:50:29;;;;;;;7.60;3.60;;;20.00;83.10;;;;;;5036188;28;20422;-70
2021/08/18 09:53:06;;;;;;;5.35;2.28;;;19.90;83.50;;;;;;5036313;28;20061;-71
2021/08/18 09:55:31;;;;;;;7.50;2.83;;;19.70;84.40;;;;;;5036199;28;20441;-71
2021/08/18 09:57:57;;;;;;;6.07;2.80;;;19.60;84.10;;;;;;5035142;28;20026;-71
2021/08/18 10:00:23;;;;;;;4.82;2.42;;;19.40;85.00;;;;;;5036071;28;20025;-69
2021/08/18 10:02:49;;;;;;;5.78;2.88;;;18.90;86.80;;;;;;5036073;28;20061;-69
2021/08/18 10:05:17;;;;;;;6.03;2.60;;;18.90;86.20;;;;;;5036030;28;20100;-71
2021/08/18 10:07:44;;;;;;;4.60;2.28;;;18.70;86.70;;;;;;5034944;28;20021;-70
2021/08/18 10:10:10;;;;;;;4.68;2.20;;;18.60;86.70;;;;;;5036109;28;20494;-71
2021/08/18 10:12:36;;;;;;;4.57;2.00;;;18.60;88.10;;;;;;5034749;28;20049;-71
2021/08/18 10:15:05;;;;;;;4.93;2.35;;;18.90;86.00;;;;;;5035329;28;20053;-71
2021/08/18 10:17:38;;;;;;;5.95;2.17;;;18.80;86.80;;;;;;5035695;28;20429;-70
2021/08/18 10:20:05;;;;;;;3.90;2.00;;;18.70;86.10;;;;;;5035919;28;20098;-72
2021/08/18 10:22:31;;;;;;;4.80;1.90;;;19.00;86.60;;;;;;5035787;28;20045;-70
2021/08/18 10:25:17;;;;;;;5.50;2.08;;;19.60;85.20;;;;;;5035967;28;20107;-69
2021/08/18 10:27:47;;;;;;;4.03;1.58;;;19.80;82.90;;;;;;5034788;28;20037;-71
2021/08/18 10:30:23;;;;;;;3.42;1.63;;;19.40;83.50;;;;;;5035741;28;20438;-70
2021/08/18 10:32:50;;;;;;;3.88;1.63;;;19.30;83.30;;;;;;5034896;28;20029;-69
2021/08/18 10:35:45;;;;;;;5.72;1.90;;;18.90;84.10;;;;;;5035859;28;20397;-72
2021/08/18 10:38:36;;;;;;;3.65;1.73;;;18.70;86.20;;;;;;5035185;28;20423;-71
2021/08/18 10:41:02;;;;;;;3.42;1.80;;;19.00;85.50;;;;;;5034460;28;20317;-71
2021/08/18 10:43:58;;;;;;;4.20;1.95;;;19.30;84.70;;;;;;5035937;28;20376;-72
2021/08/18 10:46:27;;;;;;;3.80;1.80;;;19.70;84.10;;;;;;5035512;28;20041;-72
2021/08/18 10:48:55;;;;;;;5.50;2.30;;;19.60;83.60;;;;;;5035595;28;20034;-71
2021/08/18 10:51:44;;;;;;;4.93;2.00;;;19.40;84.70;;;;;;5035702;28;20414;-71
2021/08/18 10:54:40;;;;;;;4.03;1.70;;;19.60;83.50;;;;;;5034634;28;20411;-71
2021/08/18 10:57:33;;;;;;;3.08;1.40;;;19.90;83.20;;;;;;5034146;28;20042;-72
2021/08/18 11:00:26;;;;;;;3.65;1.40;;;19.90;81.40;;;;;;5035666;28;20039;-71
2021/08/18 11:02:56;;;;;;;2.83;1.30;;;19.70;82.40;;;;;;5030115;28;20042;-71
2021/08/18 11:05:26;;;;;;;3.88;1.70;;;19.50;83.60;;;;;;5016406;28;20358;-71
2021/08/18 11:08:06;;;;;;;3.17;1.40;;;19.50;83.60;;;;;;5015949;28;20025;-71
2021/08/18 11:10:34;;;;;;;2.28;1.02;;;20.00;82.50;;;;;;5024794;28;20021;-72
2021/08/18 11:13:01;;;;;;;3.60;1.48;;;20.20;81.30;;;;;;5034208;28;20037;-71
2021/08/18 11:15:29;;;;;;;2.63;1.15;;;20.90;79.30;;;;;;5037348;28;20029;-72
2021/08/18 11:17:56;;;;;;;2.60;1.10;;;21.70;78.80;;;;;;5033685;28;20437;-71
2021/08/18 11:20:28;;;;;;;3.35;1.20;;;22.20;74.90;;;;;;5039101;28;20026;-72
2021/08/18 11:23:02;;;;;;;2.90;1.48;;;22.30;75.50;;;;;;5036157;28;20041;-72
2021/08/18 11:25:29;;;;;;;2.03;1.02;;;22.50;75.10;;;;;;5038009;28;20425;-72
2021/08/18 11:27:56;;;;;;;2.20;1.00;;;22.20;74.30;;;;;;5024225;28;20052;-72
2021/08/18 11:30:32;;;;;;;2.55;1.08;;;21.60;77.50;;;;;;5019056;28;20018;-72
2021/08/18 11:33:21;;;;;;;2.83;1.27;;;21.50;75.10;;;;;;5019978;28;20030;-71
2021/08/18 11:35:47;;;;;;;4.70;1.38;;;21.10;77.20;;;;;;5017937;28;20022;-72
2021/08/18 11:38:13;;;;;;;3.58;1.27;;;21.50;77.20;;;;;;5033593;28;20321;-72
2021/08/18 11:40:40;;;;;;;3.47;1.50;;;21.50;77.30;;;;;;5022477;28;20033;-71
2021/08/18 11:43:06;;;;;;;3.05;1.45;;;21.50;77.40;;;;;;5018064;28;20079;-72
2021/08/18 11:45:35;;;;;;;2.33;1.10;;;21.40;78.20;;;;;;5029720;28;20164;-72
2021/08/18 11:48:08;;;;;;;2.90;1.23;;;21.60;76.10;;;;;;5038218;28;20037;-72
2021/08/18 11:50:50;;;;;;;3.10;1.30;;;21.40;77.40;;;;;;5020142;28;20419;-72
2021/08/18 11:53:18;;;;;;;8.68;2.45;;;21.40;78.10;;;;;;5018629;28;20026;-72
2021/08/18 11:55:44;;;;;;;2.95;1.27;;;21.30;79.10;;;;;;5024623;28;20037;-73
2021/08/18 11:58:11;;;;;;;3.15;1.17;;;20.90;78.40;;;;;;5038310;28;20306;-72
2021/08/18 12:00:39;;;;;;;3.10;1.33;;;20.60;80.20;;;;;;5028321;28;20053;-71
2021/08/18 12:03:05;;;;;;;2.97;1.30;;;20.30;81.30;;;;;;5018544;28;20030;-71
2021/08/18 12:05:33;;;;;;;2.88;1.20;;;20.50;82.40;;;;;;5018801;28;20040;-72
2021/08/18 12:08:11;;;;;;;2.55;1.05;;;21.20;77.70;;;;;;5027254;28;20372;-71
2021/08/18 12:10:47;;;;;;;4.22;2.08;;;21.10;77.40;;;;;;5036558;28;20026;-72
2021/08/18 12:13:15;;;;;;;2.47;1.13;;;21.00;76.80;;;;;;5038280;28;20026;-71
2021/08/18 12:15:46;;;;;;;4.20;1.20;;;20.60;78.30;;;;;;5020891;28;20032;-72
2021/08/18 12:18:32;;;;;;;2.83;1.30;;;20.10;80.70;;;;;;5018333;28;20022;-72
2021/08/18 12:21:17;;;;;;;3.13;1.08;;;19.90;81.30;;;;;;5036445;28;20025;-71
2021/08/18 12:23:45;;;;;;;2.65;1.10;;;20.20;80.80;;;;;;5036797;28;20128;-72
2021/08/18 12:26:24;;;;;;;2.60;1.30;;;20.60;80.20;;;;;;5035304;28;20038;-72
2021/08/18 12:28:52;;;;;;;2.65;1.13;;;21.20;79.60;;;;;;5037417;28;20033;-71
2021/08/18 12:31:18;;;;;;;2.55;1.17;;;21.30;79.80;;;;;;5036485;28;20031;-71
2021/08/18 12:33:43;;;;;;;3.50;1.33;;;21.30;78.20;;;;;;5037600;28;20029;-71
2021/08/18 12:36:12;;;;;;;4.57;1.20;;;21.80;78.90;;;;;;5019293;28;20084;-72
2021/08/18 12:38:52;;;;;;;3.85;1.10;;;22.60;75.90;;;;;;5018165;28;20307;-72